METAR rapporten vliegvelden

   
EHVK - Volkel Rnlafb, Netherlands
Afstand tot: ZW 18 km
Gewijzigd: 08-07-2020 06:25
Wat regen mogelijk, Bewolking  
Wat regen mogelijk, Bewolking  
   Wind: ZW 13 km/h
Wind: ZW 13 km/h
Temperatuur: 13°C
Dauwpunt: 12°C
Vochtigheid: 94%
Barometer: 1015 hPa
Bewolking: Bewolking
Zicht: meer dan 10 km
Bewolking: Licht bewolkt 700 ft,
Gedeeltelijk bewolkt 1100 ft,
Bewolking 1400 ft
EHVK 080425Z AUTO 23007KT 200V260 9999 -RA FEW007 SCT011 OVC014 13/12 Q1015 RERA REDZ GRN
EDLV - Niederrhein, Germany
Afstand tot: ZO 25 km
Gewijzigd: 08-07-2020 06:20
Wat regen mogelijk, Grotendeels bewolkt  
Wat regen mogelijk, Grotendeels bewolkt  
   Wind: ZW 11.1 km/h
Wind: ZW 11.1 km/h
Temperatuur: 13°C
Dauwpunt: 12°C
Vochtigheid: 94%
Barometer: 1015 hPa
Bewolking: Grotendeels bewolkt
Zicht: meer dan 10 km
Bewolking: Grotendeels bewolkt 3800 ft
EDLV 080420Z 23006KT 9999 -RA BKN038 13/12 Q1015
EHDL - Deelen Rnlafb, Netherlands
Afstand tot: N 35 km
Gewijzigd: 08-07-2020 06:25
Lichte (mot)regen, Bewolking  
Lichte (mot)regen, Bewolking  
   Wind: ZW 7.4 km/h
Wind: ZW 7.4 km/h
Temperatuur: 13°C
Dauwpunt: 13°C
Vochtigheid: 100%
Barometer: 1014 hPa
Bewolking: Bewolking
Zicht: 8 km
Bewolking: Licht bewolkt 1000 ft,
Bewolking 2500 ft
EHDL 080425Z AUTO 23004KT 150V280 8000 -DZ FEW010 OVC025 13/13 Q1014 BLU
EHEH - Eindhoven Rnlafb, Netherlands
Afstand tot: ZW 48 km
Gewijzigd: 08-07-2020 06:25
Motregen, Bewolking  
Motregen, Bewolking  
   Wind: ZZW 9.3 km/h
Wind: ZZW 9.3 km/h
Temperatuur: 12°C
Dauwpunt: 12°C
Vochtigheid: 100%
Barometer: 1015 hPa
Bewolking: Bewolking
Zicht: meer dan 10 km
Bewolking: Gedeeltelijk bewolkt 1600 ft,
Grotendeels bewolkt 2300 ft,
Bewolking 3000 ft
EHEH 080425Z AUTO 21005KT 9999 DZ SCT016 BKN023 OVC030 12/12 Q1015 WHT 22007KT 9999 RADZ SCT015 BKN022 OVC030 BECMG 4500 FEW007 SCT012 OVC018
EHGR - Gilze-Rijen Rnla, Netherlands
Afstand tot: WZW 70 km
Gewijzigd: 08-07-2020 06:25
Wat regen mogelijk, Grotendeels bewolkt  
Wat regen mogelijk, Grotendeels bewolkt  
   Wind: ZZW 9.3 km/h
Wind: ZZW 9.3 km/h
Temperatuur: 13°C
Dauwpunt: 12°C
Vochtigheid: 94%
Barometer: 1015 hPa
Bewolking: Grotendeels bewolkt
Zicht: 7 km
Bewolking: Licht bewolkt 500 ft,
Gedeeltelijk bewolkt 600 ft,
Grotendeels bewolkt 800 ft
EHGR 080425Z AUTO 20005KT 180V240 7000 -RA FEW005 SCT006 BKN008 13/12 Q1015 RERA REDZ YLO
EBBL - Kleine-Brogel(Ba, Belgium
Afstand tot: ZZW 71 km
Gewijzigd: 08-07-2020 05:55
Wat regen mogelijk, Bewolking  
Wat regen mogelijk, Bewolking  
   Wind: varieert 3.7 km/h
Wind: varieert 3.7 km/h
Temperatuur: 12°C
Dauwpunt: 11°C
Vochtigheid: 94%
Barometer: 1016 hPa
Bewolking: Bewolking
Zicht: meer dan 10 km
Bewolking: Bewolking 6700 ft
EBBL 080355Z AUTO VRB02KT 9999 -RA OVC067/// 12/11 Q1016 BLU

Script ontwikkeld door  Saratoga-weather.org Aangepast voor de template door  Weerstation Leuven

U vindt ons ook hier:

Het Weer Aktueel

European Weather Network

WeatherCloud

Weather Underground

Benelux Weer Netwerk

Apparatuur in gebruik:

Weerstation
Davis VP2

Weerprogramma
consoleWD

Weercomputer
Raspberry

Webleverancier
Stef van Bakel koeltechniek

Davis VP2

consoleWD

Raspberry

Stef van Bakel koeltechniek